createdAt,value
2019-02-19T00:02:09.662Z,106.60
2019-02-19T00:04:38.359Z,108.32
2019-02-19T00:07:07.061Z,102.87
2019-02-19T00:09:35.804Z,106.12
2019-02-19T00:12:04.513Z,104.10
2019-02-19T00:14:33.166Z,106.12
2019-02-19T00:17:01.854Z,105.97
2019-02-19T00:19:30.565Z,109.40
2019-02-19T00:21:59.235Z,106.45
2019-02-19T00:24:27.889Z,107.03
2019-02-19T00:26:56.613Z,105.32
2019-02-19T00:29:25.316Z,105.32
2019-02-19T00:31:54.030Z,104.12
2019-02-19T00:34:22.688Z,102.45
2019-02-19T00:36:51.401Z,103.30
2019-02-19T00:39:20.045Z,105.07
2019-02-19T00:41:48.720Z,106.35
2019-02-19T00:44:17.396Z,106.65
2019-02-19T00:46:46.102Z,103.32
2019-02-19T00:49:14.786Z,106.90
2019-02-19T00:51:43.529Z,107.35
2019-02-19T00:54:12.180Z,107.52
2019-02-19T00:56:40.892Z,107.97
2019-02-19T00:59:09.593Z,105.17
2019-02-19T01:01:38.240Z,106.55
2019-02-19T01:04:06.962Z,108.60
2019-02-19T01:06:35.654Z,111.22
2019-02-19T01:09:05.235Z,110.40
2019-02-19T01:11:33.909Z,109.97
2019-02-19T01:14:02.613Z,113.80
2019-02-19T01:16:31.268Z,110.78
2019-02-19T01:18:59.984Z,110.45
2019-02-19T01:21:28.662Z,109.05
2019-02-19T01:23:57.363Z,108.32
2019-02-19T01:26:26.077Z,109.32
2019-02-19T01:28:54.766Z,109.30
2019-02-19T01:31:23.440Z,106.40
2019-02-19T01:33:52.142Z,108.52
2019-02-19T01:36:20.789Z,107.43
2019-02-19T01:38:49.480Z,112.97
2019-02-19T01:41:18.143Z,112.75
2019-02-19T01:43:46.931Z,113.28
2019-02-19T01:46:15.619Z,110.37
2019-02-19T01:48:44.294Z,107.55
2019-02-19T01:51:12.995Z,109.60
2019-02-19T01:53:41.672Z,108.55
2019-02-19T01:56:10.457Z,107.78
2019-02-19T01:58:39.198Z,106.32
2019-02-19T02:01:34.873Z,104.80
2019-02-19T02:04:03.425Z,105.55
2019-02-19T02:06:32.094Z,108.50
2019-02-19T02:09:00.769Z,109.80
2019-02-19T02:11:29.493Z,106.67
2019-02-19T02:13:58.202Z,105.67
2019-02-19T02:16:26.861Z,107.75
2019-02-19T02:18:55.616Z,107.05
2019-02-19T02:21:24.296Z,107.83
2019-02-19T02:23:52.946Z,106.35
2019-02-19T02:26:21.659Z,108.63
2019-02-19T02:28:50.361Z,108.55
2019-02-19T02:31:19.075Z,103.67
2019-02-19T02:33:47.762Z,102.95
2019-02-19T02:36:16.754Z,103.20
2019-02-19T02:38:45.521Z,100.38
2019-02-19T02:41:14.233Z,97.92
2019-02-19T02:43:42.937Z,98.10
2019-02-19T02:46:11.642Z,103.10
2019-02-19T02:48:40.329Z,104.78
2019-02-19T02:51:09.126Z,99.30
2019-02-19T02:53:37.787Z,99.00
2019-02-19T02:56:06.503Z,95.67
2019-02-19T02:58:35.243Z,93.52
2019-02-19T03:01:03.916Z,93.95
2019-02-19T03:03:33.029Z,95.25
2019-02-19T03:06:09.385Z,96.45
2019-02-19T03:08:38.123Z,99.70
2019-02-19T03:11:06.787Z,94.80
2019-02-19T03:13:35.446Z,96.08
2019-02-19T03:16:04.148Z,94.35
2019-02-19T03:18:32.872Z,95.22
2019-02-19T03:21:01.527Z,96.92
2019-02-19T03:23:30.243Z,96.15
2019-02-19T03:25:58.943Z,97.37
2019-02-19T03:28:27.669Z,98.37
2019-02-19T03:30:56.655Z,98.15
2019-02-19T03:33:25.354Z,98.45
2019-02-19T03:35:54.118Z,102.32
2019-02-19T03:38:22.802Z,103.42
2019-02-19T03:40:51.470Z,102.00
2019-02-19T03:43:20.175Z,102.32
2019-02-19T03:45:48.875Z,99.25
2019-02-19T03:48:17.545Z,96.78
2019-02-19T03:50:46.247Z,98.62
2019-02-19T03:53:14.981Z,97.85
2019-02-19T03:55:43.999Z,96.78
2019-02-19T03:58:12.680Z,94.95
2019-02-19T04:00:41.407Z,95.12
2019-02-19T04:03:10.093Z,92.72
2019-02-19T04:05:38.788Z,88.52
2019-02-19T04:08:07.495Z,94.30
2019-02-19T04:10:36.188Z,95.67
2019-02-19T04:13:04.907Z,94.52
2019-02-19T04:15:33.784Z,92.25
2019-02-19T04:18:02.497Z,92.00
2019-02-19T04:20:31.245Z,90.32
2019-02-19T04:22:59.922Z,88.33
2019-02-19T04:25:28.573Z,92.67
2019-02-19T04:27:57.266Z,87.55
2019-02-19T04:30:25.946Z,88.85
2019-02-19T04:32:54.682Z,91.25
2019-02-19T04:35:23.366Z,86.92
2019-02-19T04:37:52.026Z,85.28
2019-02-19T04:40:20.685Z,82.12
2019-02-19T04:42:49.361Z,81.92
2019-02-19T04:45:18.040Z,79.77
2019-02-19T04:47:46.756Z,79.37
2019-02-19T04:50:15.524Z,75.50
2019-02-19T04:52:44.205Z,80.60
2019-02-19T04:55:12.876Z,74.90
2019-02-19T04:57:41.583Z,77.47
2019-02-19T05:00:14.169Z,80.42
2019-02-19T05:02:42.896Z,74.67
2019-02-19T05:05:11.594Z,76.82
2019-02-19T05:07:40.275Z,77.47
2019-02-19T05:10:09.209Z,82.78
2019-02-19T05:12:37.893Z,82.30
2019-02-19T05:15:09.389Z,82.30
2019-02-19T05:17:38.145Z,81.78
2019-02-19T05:20:08.469Z,82.53
2019-02-19T05:22:37.145Z,79.92
2019-02-19T05:25:07.805Z,78.62
2019-02-19T05:27:36.511Z,72.87
2019-02-19T05:30:08.107Z,72.55
2019-02-19T05:32:36.912Z,73.67
2019-02-19T05:35:06.587Z,70.65
2019-02-19T05:37:35.398Z,71.37
2019-02-19T05:40:06.170Z,72.40
2019-02-19T05:42:34.835Z,71.45
2019-02-19T05:45:03.941Z,68.72
2019-02-19T05:47:32.643Z,67.90
2019-02-19T05:50:01.316Z,68.85
2019-02-19T05:52:30.028Z,67.92
2019-02-19T05:54:58.698Z,69.37
2019-02-19T05:57:27.369Z,68.30
2019-02-19T05:59:56.095Z,70.22
2019-02-19T06:02:24.816Z,69.32
2019-02-19T06:04:53.536Z,67.20
2019-02-19T06:07:22.338Z,74.45
2019-02-19T06:09:51.004Z,68.80
2019-02-19T06:12:19.702Z,62.43
2019-02-19T06:14:48.374Z,65.22
2019-02-19T06:17:17.061Z,75.83
2019-02-19T06:19:45.736Z,69.58
2019-02-19T06:22:14.396Z,64.12
2019-02-19T06:24:43.112Z,64.82
2019-02-19T06:27:11.812Z,65.17
2019-02-19T06:29:40.522Z,69.72
2019-02-19T06:32:09.301Z,71.55
2019-02-19T06:34:37.950Z,71.72
2019-02-19T06:37:06.661Z,79.90
2019-02-19T06:39:35.435Z,77.75
2019-02-19T06:42:04.138Z,82.27
2019-02-19T06:44:32.830Z,87.88
2019-02-19T06:47:06.705Z,93.80
2019-02-19T06:49:31.872Z,91.02
2019-02-19T06:52:00.562Z,92.08
2019-02-19T06:54:29.247Z,93.10
2019-02-19T06:56:57.945Z,95.62
2019-02-19T06:59:26.769Z,93.80
2019-02-19T07:01:57.054Z,91.05
2019-02-19T07:04:27.668Z,92.17
2019-02-19T07:06:56.350Z,87.97
2019-02-19T07:09:25.061Z,87.50
2019-02-19T07:11:53.794Z,90.97
2019-02-19T07:14:22.558Z,87.17
2019-02-19T07:16:51.277Z,84.45
2019-02-19T07:19:20.037Z,83.12
2019-02-19T07:21:48.731Z,79.62
2019-02-19T07:24:17.405Z,78.80
2019-02-19T07:26:46.097Z,78.83
2019-02-19T07:29:15.144Z,81.67
2019-02-19T07:31:43.896Z,80.17
2019-02-19T07:34:12.590Z,80.30
2019-02-19T07:36:41.267Z,82.25
2019-02-19T07:39:09.973Z,79.92
2019-02-19T07:41:38.642Z,75.35
2019-02-19T07:44:07.345Z,69.85
2019-02-19T07:46:36.007Z,70.28
2019-02-19T07:49:04.693Z,64.70
2019-02-19T07:51:33.350Z,63.08
2019-02-19T07:54:02.059Z,62.38
2019-02-19T07:56:30.730Z,63.50
2019-02-19T07:58:59.448Z,59.05
2019-02-19T08:01:28.182Z,53.50
2019-02-19T08:03:56.869Z,50.67
2019-02-19T08:06:25.513Z,49.35
2019-02-19T08:08:54.189Z,49.48
2019-02-19T08:11:22.876Z,48.15
2019-02-19T08:13:51.577Z,44.50
2019-02-19T08:16:20.227Z,46.60
2019-02-19T08:18:48.941Z,43.55
2019-02-19T08:21:17.686Z,43.30
2019-02-19T08:23:46.337Z,44.25
2019-02-19T08:26:15.087Z,42.23
2019-02-19T08:28:43.781Z,41.50
2019-02-19T08:31:12.538Z,43.38
2019-02-19T08:33:41.230Z,43.65
2019-02-19T08:36:09.889Z,41.70
2019-02-19T08:38:38.548Z,40.60
2019-02-19T08:41:07.251Z,40.60
2019-02-19T08:43:35.947Z,40.08
2019-02-19T08:46:04.626Z,40.80
2019-02-19T08:48:33.300Z,39.05
2019-02-19T08:51:01.983Z,39.78
2019-02-19T08:53:30.711Z,37.17
2019-02-19T08:55:59.396Z,38.50
2019-02-19T08:58:28.093Z,37.55
2019-02-19T09:00:56.763Z,38.45
2019-02-19T09:03:25.442Z,36.10
2019-02-19T09:05:54.089Z,39.08
2019-02-19T09:08:22.816Z,36.83
2019-02-19T09:10:51.505Z,38.83
2019-02-19T09:13:20.255Z,37.63
2019-02-19T09:15:48.966Z,37.67
2019-02-19T09:18:17.631Z,36.75
2019-02-19T09:20:46.349Z,34.13
2019-02-19T09:23:15.014Z,34.90
2019-02-19T09:25:43.734Z,35.25
2019-02-19T09:28:12.408Z,34.35
2019-02-19T09:30:41.092Z,34.03
2019-02-19T09:33:09.775Z,32.95
2019-02-19T09:35:38.531Z,32.75
2019-02-19T09:38:07.209Z,32.40
2019-02-19T09:40:35.854Z,31.73
2019-02-19T09:43:04.591Z,31.42
2019-02-19T09:45:33.223Z,32.83
2019-02-19T09:48:01.875Z,31.95
2019-02-19T09:50:30.557Z,30.50
2019-02-19T09:53:00.220Z,30.55
2019-02-19T09:55:29.267Z,31.25
2019-02-19T09:57:57.940Z,29.70
2019-02-19T10:00:26.618Z,29.30
2019-02-19T10:02:55.393Z,30.35
2019-02-19T10:05:24.098Z,29.00
2019-02-19T10:07:52.779Z,27.27
2019-02-19T10:10:24.181Z,27.65
2019-02-19T10:12:52.832Z,27.67
2019-02-19T10:15:21.538Z,28.77
2019-02-19T10:17:50.232Z,28.02
2019-02-19T10:20:18.946Z,28.45
2019-02-19T10:22:47.612Z,28.07
2019-02-19T10:25:16.302Z,28.83
2019-02-19T10:27:45.021Z,28.90
2019-02-19T10:30:18.561Z,31.50
2019-02-19T10:32:47.222Z,30.10
2019-02-19T10:35:15.960Z,30.43
2019-02-19T10:37:44.611Z,29.52
2019-02-19T10:40:16.289Z,29.12
2019-02-19T10:42:45.031Z,27.87
2019-02-19T10:45:16.443Z,29.37
2019-02-19T10:47:45.125Z,28.85
2019-02-19T10:50:13.805Z,29.95
2019-02-19T10:52:42.494Z,29.02
2019-02-19T10:55:11.189Z,29.70
2019-02-19T10:57:39.882Z,31.23
2019-02-19T11:00:16.167Z,30.35
2019-02-19T11:02:44.838Z,30.32
2019-02-19T11:05:13.502Z,29.95
2019-02-19T11:07:42.234Z,26.60
2019-02-19T11:10:13.527Z,26.52
2019-02-19T11:12:42.306Z,27.22
2019-02-19T11:15:12.651Z,27.02
2019-02-19T11:17:41.305Z,25.20
2019-02-19T11:20:12.344Z,26.65
2019-02-19T11:22:41.067Z,27.55
2019-02-19T11:25:11.645Z,27.37
2019-02-19T11:27:40.388Z,27.85
2019-02-19T11:30:14.642Z,26.80
2019-02-19T11:32:43.370Z,26.52
2019-02-19T11:35:12.077Z,26.42
2019-02-19T11:37:40.768Z,25.25
2019-02-19T11:40:11.650Z,23.70
2019-02-19T11:42:40.335Z,24.32
2019-02-19T11:45:14.904Z,23.22
2019-02-19T11:47:43.580Z,23.32
2019-02-19T11:50:12.893Z,23.65
2019-02-19T11:52:41.570Z,24.45
2019-02-19T11:55:18.216Z,25.37
2019-02-19T11:57:46.927Z,26.57
2019-02-19T12:00:17.840Z,28.12
2019-02-19T12:02:46.540Z,27.20
2019-02-19T12:05:15.197Z,27.25
2019-02-19T12:07:43.894Z,26.15
2019-02-19T12:10:12.559Z,26.37
2019-02-19T12:12:41.239Z,24.72
2019-02-19T12:15:13.234Z,25.17
2019-02-19T12:17:41.930Z,27.45
2019-02-19T12:20:12.979Z,25.85
2019-02-19T12:22:41.666Z,25.77
2019-02-19T12:25:10.464Z,26.05
2019-02-19T12:27:39.164Z,22.45
2019-02-19T12:30:10.992Z,18.87
2019-02-19T12:32:39.645Z,18.42
2019-02-19T12:35:08.967Z,18.05
2019-02-19T12:37:37.626Z,17.65
2019-02-19T12:40:09.420Z,20.32
2019-02-19T12:42:38.110Z,16.02
2019-02-19T12:45:09.669Z,17.45
2019-02-19T12:47:38.352Z,16.77
2019-02-19T12:50:10.020Z,16.48
2019-02-19T12:52:38.688Z,17.12
2019-02-19T12:55:07.972Z,17.23
2019-02-19T12:57:36.917Z,16.52
2019-02-19T13:00:08.949Z,16.73
2019-02-19T13:02:37.566Z,16.17
2019-02-19T13:05:08.428Z,16.65
2019-02-19T13:07:37.134Z,16.80
2019-02-19T13:10:08.444Z,16.62
2019-02-19T13:12:37.094Z,16.77
2019-02-19T13:15:09.172Z,15.98
2019-02-19T13:17:37.858Z,15.70
2019-02-19T13:20:09.820Z,15.70
2019-02-19T13:22:38.674Z,16.50
2019-02-19T13:25:09.173Z,17.02
2019-02-19T13:27:37.902Z,16.77
2019-02-19T13:30:10.560Z,17.25
2019-02-19T13:32:39.390Z,18.30
2019-02-19T13:35:09.883Z,18.20
2019-02-19T13:37:38.547Z,17.90
2019-02-19T13:40:13.219Z,18.45
2019-02-19T13:42:41.911Z,18.23
2019-02-19T13:45:13.315Z,19.50
2019-02-19T13:47:42.036Z,17.95
2019-02-19T13:50:22.339Z,19.42
2019-02-19T13:52:52.590Z,20.15
2019-02-19T13:55:22.829Z,20.62
2019-02-19T13:57:51.599Z,20.75
2019-02-19T14:00:21.947Z,20.52
2019-02-19T14:02:50.602Z,20.70
2019-02-19T14:05:19.306Z,18.57
2019-02-19T14:07:48.082Z,19.57
2019-02-19T14:10:16.803Z,19.25
2019-02-19T14:12:45.492Z,19.20
2019-02-19T14:15:15.717Z,19.98
2019-02-19T14:17:44.437Z,20.25
2019-02-19T14:20:14.682Z,19.95
2019-02-19T14:22:53.936Z,20.60
2019-02-19T14:25:27.431Z,20.10
2019-02-19T14:27:57.747Z,20.62
2019-02-19T14:30:42.789Z,20.37
2019-02-19T14:33:29.470Z,21.23
2019-02-19T14:36:15.997Z,21.15
2019-02-19T14:38:48.702Z,21.93
2019-02-19T14:41:21.753Z,22.00
2019-02-19T14:43:55.135Z,22.40
2019-02-19T14:46:40.290Z,23.22
2019-02-19T14:49:34.192Z,22.48
2019-02-19T14:52:10.075Z,25.27
2019-02-19T14:54:43.676Z,25.17
2019-02-19T14:57:19.618Z,24.35
2019-02-19T14:59:58.683Z,30.85
2019-02-19T15:02:34.707Z,32.65
2019-02-19T15:05:17.282Z,34.15
2019-02-19T15:07:53.417Z,33.42
2019-02-19T15:10:29.620Z,36.03
2019-02-19T15:13:15.197Z,40.03
2019-02-19T15:15:45.532Z,39.48
2019-02-19T15:18:31.998Z,38.30
2019-02-19T15:21:14.288Z,40.95
2019-02-19T15:23:50.525Z,38.73
2019-02-19T15:26:29.433Z,37.45
2019-02-19T15:29:02.671Z,39.98
2019-02-19T15:31:33.013Z,33.45
2019-02-19T15:34:09.270Z,33.98
2019-02-19T15:36:55.634Z,32.13
2019-02-19T15:39:36.307Z,34.40
2019-02-19T15:42:09.346Z,30.77
2019-02-19T15:44:39.720Z,31.95
2019-02-19T15:47:12.917Z,32.83
2019-02-19T15:49:49.174Z,33.15
2019-02-19T15:52:19.431Z,31.57
2019-02-19T15:54:59.315Z,34.85
2019-02-19T15:57:44.694Z,32.53
2019-02-19T16:00:23.239Z,31.48
2019-02-19T16:02:53.473Z,31.27
2019-02-19T16:05:26.848Z,29.63
2019-02-19T16:08:06.131Z,27.60
2019-02-19T16:10:36.406Z,29.50
2019-02-19T16:13:09.439Z,30.60
2019-02-19T16:15:45.768Z,34.60
2019-02-19T16:18:21.873Z,31.97
2019-02-19T16:20:55.178Z,31.00
2019-02-19T16:23:28.182Z,32.40
2019-02-19T16:26:01.297Z,32.97
2019-02-19T16:28:34.050Z,33.18
2019-02-19T16:31:04.314Z,30.97
2019-02-19T16:33:37.250Z,29.90
2019-02-19T16:36:07.534Z,31.25
2019-02-19T16:38:54.065Z,26.77
2019-02-19T16:41:36.233Z,27.70
2019-02-19T16:44:06.558Z,37.83
2019-02-19T16:46:51.882Z,29.02
2019-02-19T16:49:34.205Z,23.80
2019-02-19T16:52:04.457Z,21.05
2019-02-19T16:54:34.783Z,20.57
2019-02-19T16:57:05.040Z,22.00
2019-02-19T16:59:41.332Z,22.50
2019-02-19T17:02:17.258Z,21.17
2019-02-19T17:04:47.493Z,19.57
2019-02-19T17:07:20.543Z,20.30
2019-02-19T17:09:50.807Z,20.33
2019-02-19T17:12:32.810Z,20.35
2019-02-19T17:15:15.091Z,20.27
2019-02-19T17:17:45.379Z,18.98
2019-02-19T17:20:29.200Z,20.32
2019-02-19T17:22:58.911Z,19.65
2019-02-19T17:25:34.694Z,20.87
2019-02-19T17:28:10.777Z,20.10
2019-02-19T17:30:40.991Z,22.62
2019-02-19T17:33:11.249Z,23.15
2019-02-19T17:35:44.486Z,23.02
2019-02-19T17:38:20.660Z,24.35
2019-02-19T17:40:59.808Z,22.20
2019-02-19T17:43:36.189Z,23.05
2019-02-19T17:46:15.650Z,26.40
2019-02-19T17:48:49.093Z,29.27
2019-02-19T17:51:22.050Z,35.55
2019-02-19T17:53:52.347Z,21.07
2019-02-19T17:56:28.420Z,17.77
2019-02-19T17:59:10.486Z,15.15
2019-02-19T18:01:46.956Z,15.95
2019-02-19T18:04:17.226Z,17.67
2019-02-19T18:06:47.475Z,12.98
2019-02-19T18:09:34.289Z,11.50
2019-02-19T18:12:04.951Z,9.78
2019-02-19T18:14:51.518Z,9.93
2019-02-19T18:17:24.558Z,9.30
2019-02-19T18:19:53.222Z,7.90
2019-02-19T18:22:21.879Z,7.62
2019-02-19T18:24:50.937Z,8.45
2019-02-19T18:27:19.610Z,8.05
2019-02-19T18:29:48.294Z,8.10
2019-02-19T18:32:16.984Z,8.20
2019-02-19T18:34:45.654Z,9.10
2019-02-19T18:37:14.335Z,8.83
2019-02-19T18:39:43.051Z,9.85
2019-02-19T18:42:11.742Z,11.95
2019-02-19T18:44:40.439Z,10.55
2019-02-19T18:47:09.078Z,10.23
2019-02-19T18:49:37.783Z,12.85
2019-02-19T18:52:06.430Z,11.63
2019-02-19T18:54:35.147Z,14.38
2019-02-19T18:57:03.892Z,12.90
2019-02-19T18:59:32.551Z,14.18
2019-02-19T19:02:01.255Z,14.47
2019-02-19T19:04:29.975Z,15.30
2019-02-19T19:06:58.627Z,16.07
2019-02-19T19:09:27.313Z,15.85
2019-02-19T19:11:55.990Z,15.10
2019-02-19T19:14:24.764Z,16.10
2019-02-19T19:16:53.496Z,15.88
2019-02-19T19:19:22.182Z,16.12
2019-02-19T19:21:50.866Z,15.78
2019-02-19T19:24:19.575Z,15.45
2019-02-19T19:26:48.300Z,14.60
2019-02-19T19:29:17.069Z,14.87
2019-02-19T19:31:45.759Z,15.40
2019-02-19T19:34:14.513Z,15.53
2019-02-19T19:36:43.215Z,15.45
2019-02-19T19:39:11.952Z,15.83
2019-02-19T19:41:40.611Z,15.68
2019-02-19T19:44:09.296Z,16.30
2019-02-19T19:46:38.024Z,17.92
2019-02-19T19:49:06.685Z,17.48
2019-02-19T19:51:35.333Z,17.92
2019-02-19T19:54:04.058Z,19.98
2019-02-19T19:56:32.710Z,19.23
2019-02-19T19:59:01.395Z,19.87
2019-02-19T20:01:30.095Z,20.37
2019-02-19T20:03:58.771Z,21.27
2019-02-19T20:06:27.446Z,22.00
2019-02-19T20:08:56.166Z,21.33
2019-02-19T20:11:24.841Z,21.33
2019-02-19T20:13:53.518Z,21.97
2019-02-19T20:16:22.320Z,22.70
2019-02-19T20:18:51.139Z,21.02
2019-02-19T20:21:26.423Z,23.57
2019-02-19T20:23:50.287Z,25.55
2019-02-19T20:26:18.936Z,24.98
2019-02-19T20:28:47.655Z,25.32
2019-02-19T20:31:16.381Z,23.50
2019-02-19T20:33:45.087Z,26.05
2019-02-19T20:36:13.722Z,24.23
2019-02-19T20:38:42.443Z,25.90
2019-02-19T20:41:11.120Z,26.07
2019-02-19T20:43:39.801Z,25.75
2019-02-19T20:46:08.517Z,25.00
2019-02-19T20:48:37.184Z,23.02
2019-02-19T20:51:05.938Z,24.37
2019-02-19T20:53:34.846Z,23.60
2019-02-19T20:56:03.502Z,23.10
2019-02-19T20:58:33.897Z,23.40
2019-02-19T21:01:02.555Z,24.00
2019-02-19T21:03:31.251Z,23.50
2019-02-19T21:06:00.010Z,24.12
2019-02-19T21:08:28.729Z,22.75
2019-02-19T21:10:57.410Z,23.20
2019-02-19T21:13:26.112Z,23.75
2019-02-19T21:15:54.769Z,24.05
2019-02-19T21:18:25.169Z,23.27
2019-02-19T21:20:53.870Z,24.35
2019-02-19T21:23:22.551Z,21.52
2019-02-19T21:25:51.254Z,24.07
2019-02-19T21:28:20.016Z,25.32
2019-02-19T21:30:54.925Z,27.95
2019-02-19T21:33:45.504Z,27.55
2019-02-19T21:36:27.451Z,24.63
2019-02-19T21:39:08.742Z,23.83
2019-02-19T21:41:59.492Z,24.18
2019-02-19T21:44:47.099Z,26.27
2019-02-19T21:47:33.196Z,25.43
2019-02-19T21:50:15.996Z,25.70
2019-02-19T21:52:57.964Z,26.27
2019-02-19T21:55:25.024Z,26.90
2019-02-19T21:57:53.698Z,25.48
2019-02-19T22:00:24.147Z,24.63
2019-02-19T22:03:11.187Z,25.68
2019-02-19T22:05:57.400Z,23.87
2019-02-19T22:08:51.410Z,24.98
2019-02-19T22:11:36.626Z,24.25
2019-02-19T22:14:27.234Z,23.90
2019-02-19T22:17:15.749Z,25.37
2019-02-19T22:20:08.834Z,25.50
2019-02-19T22:22:59.744Z,26.07
2019-02-19T22:25:39.956Z,26.50
2019-02-19T22:28:31.348Z,28.07
2019-02-19T22:31:09.951Z,28.35
2019-02-19T22:33:44.956Z,28.00
2019-02-19T22:36:13.699Z,27.87
2019-02-19T22:38:42.398Z,28.65
2019-02-19T22:41:11.154Z,25.88
2019-02-19T22:43:39.836Z,27.60
2019-02-19T22:46:08.501Z,29.80
2019-02-19T22:48:37.150Z,29.90
2019-02-19T22:51:05.826Z,30.23
2019-02-19T22:53:45.171Z,28.23
2019-02-19T22:56:34.038Z,28.42
2019-02-19T22:59:02.949Z,28.85
2019-02-19T23:01:33.231Z,29.52
2019-02-19T23:04:02.001Z,31.00
2019-02-19T23:06:30.677Z,29.60
2019-02-19T23:08:59.323Z,28.52
2019-02-19T23:11:27.998Z,28.95
2019-02-19T23:13:56.693Z,28.50
2019-02-19T23:16:25.450Z,29.95
2019-02-19T23:18:54.540Z,31.73
2019-02-19T23:21:23.417Z,30.72
2019-02-19T23:23:52.163Z,30.00
2019-02-19T23:26:20.826Z,28.20
2019-02-19T23:28:50.287Z,27.17
2019-02-19T23:31:18.921Z,27.65
2019-02-19T23:33:48.568Z,29.72
2019-02-19T23:36:21.851Z,27.85
2019-02-19T23:38:50.652Z,27.45
2019-02-19T23:41:19.532Z,26.68
2019-02-19T23:43:48.241Z,26.82
2019-02-19T23:46:16.925Z,27.55
2019-02-19T23:48:45.938Z,26.85
2019-02-19T23:51:14.633Z,26.82
2019-02-19T23:53:43.311Z,26.90
2019-02-19T23:56:11.961Z,25.27
2019-02-19T23:58:40.670Z,24.55
